createdAt,value
2017-06-04T00:00:14.587Z,0.00
2017-06-04T00:01:10.871Z,0.00
2017-06-04T00:02:08.004Z,0.00
2017-06-04T00:03:04.706Z,0.00
2017-06-04T00:04:01.451Z,0.00
2017-06-04T00:04:57.715Z,0.00
2017-06-04T00:05:54.050Z,0.00
2017-06-04T00:06:50.349Z,0.00
2017-06-04T00:07:46.607Z,0.00
2017-06-04T00:08:42.885Z,0.00
2017-06-04T00:09:39.151Z,0.00
2017-06-04T00:10:35.631Z,0.00
2017-06-04T00:11:31.891Z,0.00
2017-06-04T00:12:28.186Z,0.00
2017-06-04T00:13:24.462Z,0.00
2017-06-04T00:14:20.726Z,0.00
2017-06-04T00:15:16.994Z,0.00
2017-06-04T00:16:14.187Z,0.00
2017-06-04T00:17:10.482Z,0.00
2017-06-04T00:18:06.758Z,0.00
2017-06-04T00:19:03.027Z,0.00
2017-06-04T00:19:59.298Z,0.00
2017-06-04T00:20:55.552Z,0.00
2017-06-04T00:21:53.344Z,0.00
2017-06-04T00:22:49.789Z,0.00
2017-06-04T00:23:46.951Z,0.00
2017-06-04T00:24:44.175Z,0.00
2017-06-04T00:25:40.439Z,0.00
2017-06-04T00:26:36.966Z,0.00
2017-06-04T00:27:34.170Z,0.00
2017-06-04T00:28:30.435Z,0.00
2017-06-04T00:29:28.735Z,0.00
2017-06-04T00:30:25.725Z,0.00
2017-06-04T00:31:23.152Z,0.00
2017-06-04T00:32:19.771Z,0.00
2017-06-04T00:33:16.091Z,0.00
2017-06-04T00:34:12.381Z,0.00
2017-06-04T00:35:09.488Z,0.00
2017-06-04T00:36:05.771Z,0.00
2017-06-04T00:37:02.075Z,0.00
2017-06-04T00:37:59.225Z,0.00
2017-06-04T00:38:55.499Z,0.00
2017-06-04T00:39:51.832Z,0.00
2017-06-04T00:40:48.544Z,0.00
2017-06-04T00:41:44.944Z,0.00
2017-06-04T00:42:43.240Z,0.00
2017-06-04T00:43:39.599Z,0.00
2017-06-04T00:44:35.992Z,0.00
2017-06-04T00:45:33.239Z,0.00
2017-06-04T00:46:29.591Z,0.00
2017-06-04T00:47:26.832Z,0.00
2017-06-04T00:48:23.122Z,0.00
2017-06-04T00:49:19.393Z,0.00
2017-06-04T00:50:16.567Z,0.00
2017-06-04T00:51:13.739Z,0.00
2017-06-04T00:52:10.079Z,0.00
2017-06-04T00:53:11.304Z,0.00
2017-06-04T00:54:09.600Z,0.00
2017-06-04T00:55:06.063Z,0.00
2017-06-04T00:56:02.411Z,0.00
2017-06-04T00:56:58.687Z,0.00
2017-06-04T00:57:54.963Z,0.00
2017-06-04T00:58:51.335Z,0.00
2017-06-04T00:59:48.460Z,0.00
2017-06-04T01:00:44.834Z,0.00
2017-06-04T01:01:41.160Z,0.00
2017-06-04T01:02:37.470Z,0.00
2017-06-04T01:03:33.738Z,0.00
2017-06-04T01:04:30.055Z,0.00
2017-06-04T01:05:27.128Z,0.00
2017-06-04T01:06:23.378Z,0.00
2017-06-04T01:07:20.512Z,0.00
2017-06-04T01:08:16.783Z,0.00
2017-06-04T01:09:13.967Z,0.00
2017-06-04T01:10:10.336Z,0.00
2017-06-04T01:11:08.511Z,0.00
2017-06-04T01:12:04.859Z,0.00
2017-06-04T01:13:01.115Z,0.00
2017-06-04T01:13:57.423Z,0.00
2017-06-04T01:14:53.773Z,0.00
2017-06-04T01:15:50.091Z,0.00
2017-06-04T01:16:47.274Z,0.00
2017-06-04T01:17:47.628Z,0.00
2017-06-04T01:18:43.971Z,0.00
2017-06-04T01:19:42.116Z,0.00
2017-06-04T01:20:38.435Z,0.00
2017-06-04T01:21:35.705Z,0.00
2017-06-04T01:22:34.091Z,0.00
2017-06-04T01:23:30.498Z,0.00
2017-06-04T01:24:26.847Z,0.00
2017-06-04T01:25:23.891Z,0.00
2017-06-04T01:26:20.171Z,0.00
2017-06-04T01:27:16.484Z,0.00
2017-06-04T01:28:12.761Z,0.00
2017-06-04T01:29:10.007Z,0.00
2017-06-04T01:30:08.136Z,0.00
2017-06-04T01:31:05.449Z,0.00
2017-06-04T01:32:02.776Z,0.00
2017-06-04T01:32:59.079Z,0.00
2017-06-04T01:33:55.411Z,0.00
2017-06-04T01:34:52.659Z,0.00
2017-06-04T01:35:49.815Z,0.00
2017-06-04T01:36:46.203Z,0.00
2017-06-04T01:37:42.511Z,0.00
2017-06-04T01:38:38.815Z,0.00
2017-06-04T01:39:36.125Z,0.00
2017-06-04T01:40:33.290Z,0.00
2017-06-04T01:41:29.924Z,0.00
2017-06-04T01:42:26.267Z,0.00
2017-06-04T01:43:23.567Z,0.00
2017-06-04T01:44:20.699Z,0.00
2017-06-04T01:45:16.982Z,0.00
2017-06-04T01:46:14.256Z,0.00
2017-06-04T01:47:10.551Z,0.00
2017-06-04T01:48:06.823Z,0.00
2017-06-04T01:49:05.093Z,0.00
2017-06-04T01:50:02.330Z,0.00
2017-06-04T01:50:58.595Z,0.00
2017-06-04T01:52:57.971Z,0.00
2017-06-04T01:53:54.216Z,0.00
2017-06-04T01:54:50.528Z,0.00
2017-06-04T01:55:46.796Z,0.00
2017-06-04T01:56:43.058Z,0.00
2017-06-04T01:57:39.331Z,0.00
2017-06-04T01:58:36.582Z,0.00
2017-06-04T01:59:33.879Z,0.00
2017-06-04T02:00:30.179Z,0.00
2017-06-04T02:01:26.454Z,0.00
2017-06-04T02:02:24.728Z,0.00
2017-06-04T02:03:21.044Z,0.00
2017-06-04T02:04:17.307Z,0.00
2017-06-04T02:05:13.559Z,0.00
2017-06-04T02:06:09.857Z,0.00
2017-06-04T02:07:06.123Z,0.00
2017-06-04T02:08:02.400Z,0.00
2017-06-04T02:08:58.667Z,0.00
2017-06-04T02:09:54.926Z,0.00
2017-06-04T02:10:51.196Z,0.00
2017-06-04T02:11:47.479Z,0.00
2017-06-04T02:12:43.735Z,0.00
2017-06-04T02:13:40.012Z,0.00
2017-06-04T02:14:36.275Z,0.00
2017-06-04T02:15:33.371Z,0.00
2017-06-04T02:16:29.680Z,0.00
2017-06-04T02:17:25.986Z,0.00
2017-06-04T02:18:22.254Z,0.00
2017-06-04T02:19:18.536Z,0.00
2017-06-04T02:20:14.811Z,0.00
2017-06-04T02:21:11.075Z,0.00
2017-06-04T02:22:07.347Z,0.00
2017-06-04T02:23:03.634Z,0.00
2017-06-04T02:23:59.923Z,0.00
2017-06-04T02:24:56.186Z,0.00
2017-06-04T02:25:52.495Z,0.00
2017-06-04T02:26:49.619Z,0.00
2017-06-04T02:27:46.695Z,0.00
2017-06-04T02:28:43.935Z,0.00
2017-06-04T02:29:40.962Z,0.00
2017-06-04T02:30:37.211Z,0.00
2017-06-04T02:31:34.094Z,0.00
2017-06-04T02:32:30.378Z,0.00
2017-06-04T02:33:26.679Z,0.00
2017-06-04T02:34:22.923Z,0.00
2017-06-04T02:35:19.954Z,0.00
2017-06-04T02:36:17.216Z,0.00
2017-06-04T02:37:13.468Z,0.00
2017-06-04T02:38:09.743Z,0.00
2017-06-04T02:39:06.042Z,0.00
2017-06-04T02:40:02.314Z,0.00
2017-06-04T02:40:58.566Z,0.00
2017-06-04T02:41:54.815Z,0.00
2017-06-04T02:42:51.088Z,0.00
2017-06-04T02:43:47.350Z,0.00
2017-06-04T02:44:43.655Z,0.00
2017-06-04T02:45:40.111Z,0.00
2017-06-04T02:46:36.373Z,0.00
2017-06-04T02:47:32.631Z,0.00
2017-06-04T02:48:28.895Z,0.00
2017-06-04T02:49:25.143Z,0.00
2017-06-04T02:50:21.411Z,0.00
2017-06-04T02:51:17.670Z,0.00
2017-06-04T02:52:13.907Z,0.00
2017-06-04T02:53:10.185Z,0.00
2017-06-04T02:54:06.443Z,0.00
2017-06-04T02:55:02.791Z,0.00
2017-06-04T02:55:59.096Z,0.00
2017-06-04T02:56:55.364Z,0.00
2017-06-04T02:57:51.619Z,0.00
2017-06-04T02:58:47.878Z,0.00
2017-06-04T02:59:44.146Z,0.00
2017-06-04T03:00:41.390Z,0.00
2017-06-04T03:01:37.676Z,1.00
2017-06-04T03:02:33.938Z,1.00
2017-06-04T03:03:30.198Z,1.00
2017-06-04T03:04:27.415Z,1.00
2017-06-04T03:05:23.678Z,1.00
2017-06-04T03:06:19.975Z,1.00
2017-06-04T03:07:16.247Z,1.00
2017-06-04T03:08:12.539Z,1.00
2017-06-04T03:09:08.878Z,1.00
2017-06-04T03:10:05.189Z,1.00
2017-06-04T03:11:01.447Z,1.00
2017-06-04T03:11:57.803Z,1.00
2017-06-04T03:12:54.067Z,1.00
2017-06-04T03:13:50.535Z,1.00
2017-06-04T03:14:46.810Z,1.00
2017-06-04T03:15:43.071Z,1.00
2017-06-04T03:16:39.339Z,1.00
2017-06-04T03:17:35.631Z,1.00
2017-06-04T03:18:31.927Z,2.00
2017-06-04T03:19:28.199Z,2.00
2017-06-04T03:20:24.499Z,2.00
2017-06-04T03:21:20.783Z,2.00
2017-06-04T03:22:18.052Z,2.00
2017-06-04T03:23:14.335Z,2.00
2017-06-04T03:24:10.603Z,2.00
2017-06-04T03:25:06.890Z,2.00
2017-06-04T03:26:03.204Z,2.00
2017-06-04T03:26:59.521Z,2.00
2017-06-04T03:27:55.799Z,2.00
2017-06-04T03:28:52.059Z,3.00
2017-06-04T03:29:48.329Z,3.00
2017-06-04T03:30:45.502Z,3.00
2017-06-04T03:31:41.799Z,4.00
2017-06-04T03:32:38.082Z,4.00
2017-06-04T03:33:35.363Z,5.00
2017-06-04T03:34:33.532Z,5.00
2017-06-04T03:35:29.971Z,5.00
2017-06-04T03:36:26.316Z,5.00
2017-06-04T03:37:22.589Z,5.00
2017-06-04T03:38:19.656Z,6.00
2017-06-04T03:39:17.953Z,6.00
2017-06-04T03:40:14.279Z,5.00
2017-06-04T03:41:10.605Z,5.00
2017-06-04T03:42:06.915Z,6.00
2017-06-04T03:43:03.255Z,8.00
2017-06-04T03:43:59.542Z,9.00
2017-06-04T03:44:56.694Z,10.00
2017-06-04T03:45:53.759Z,11.00
2017-06-04T03:46:50.086Z,11.00
2017-06-04T03:47:46.368Z,13.00
2017-06-04T03:48:44.496Z,14.00
2017-06-04T03:49:40.819Z,15.00
2017-06-04T03:50:37.175Z,16.00
2017-06-04T03:51:35.452Z,17.00
2017-06-04T03:52:31.790Z,18.00
2017-06-04T03:53:28.095Z,20.00
2017-06-04T03:54:25.243Z,21.00
2017-06-04T03:55:21.596Z,22.00
2017-06-04T03:56:18.823Z,23.00
2017-06-04T03:57:15.106Z,23.00
2017-06-04T03:58:13.427Z,24.00
2017-06-04T03:59:09.731Z,26.00
2017-06-04T04:00:05.994Z,26.00
2017-06-04T04:01:03.100Z,25.00
2017-06-04T04:02:00.191Z,23.00
2017-06-04T04:02:57.267Z,22.00
2017-06-04T04:03:53.543Z,23.00
2017-06-04T04:04:50.623Z,23.00
2017-06-04T04:05:46.896Z,23.00
2017-06-04T04:06:43.207Z,23.00
2017-06-04T04:07:39.483Z,23.00
2017-06-04T04:08:35.759Z,23.00
2017-06-04T04:09:32.971Z,22.00
2017-06-04T04:10:29.243Z,22.00
2017-06-04T04:11:26.340Z,22.00
2017-06-04T04:12:22.683Z,22.00
2017-06-04T04:13:19.019Z,23.00
2017-06-04T04:14:15.283Z,24.00
2017-06-04T04:15:11.703Z,26.00
2017-06-04T04:16:08.031Z,28.00
2017-06-04T04:17:07.332Z,31.00
2017-06-04T04:18:05.011Z,35.00
2017-06-04T04:19:02.224Z,41.00
2017-06-04T04:19:58.519Z,46.00
2017-06-04T04:20:55.718Z,51.00
2017-06-04T04:21:51.979Z,56.00
2017-06-04T04:22:49.215Z,61.00
2017-06-04T04:23:46.523Z,65.00
2017-06-04T04:24:43.791Z,69.00
2017-06-04T04:25:40.160Z,73.00
2017-06-04T04:26:37.512Z,75.00
2017-06-04T04:27:33.848Z,76.00
2017-06-04T04:28:31.084Z,76.00
2017-06-04T04:29:27.471Z,76.00
2017-06-04T04:30:23.832Z,77.00
2017-06-04T04:31:20.116Z,76.00
2017-06-04T04:32:16.375Z,75.00
2017-06-04T04:33:12.663Z,74.00
2017-06-04T04:34:09.000Z,72.00
2017-06-04T04:35:06.272Z,72.00
2017-06-04T04:36:02.576Z,72.00
2017-06-04T04:36:58.860Z,72.00
2017-06-04T04:37:55.115Z,72.00
2017-06-04T04:38:51.423Z,73.00
2017-06-04T04:39:48.659Z,74.00
2017-06-04T04:40:44.918Z,77.00
2017-06-04T04:41:41.175Z,79.00
2017-06-04T04:42:37.434Z,81.00
2017-06-04T04:43:33.731Z,82.00
2017-06-04T04:44:32.075Z,82.00
2017-06-04T04:45:28.459Z,82.00
2017-06-04T04:46:25.547Z,80.00
2017-06-04T04:47:22.869Z,80.00
2017-06-04T04:48:19.131Z,81.00
2017-06-04T04:49:15.408Z,83.00
2017-06-04T04:50:14.639Z,87.00
2017-06-04T04:51:11.955Z,92.00
2017-06-04T04:52:08.247Z,97.00
2017-06-04T04:53:05.367Z,101.00
2017-06-04T04:54:01.663Z,106.00
2017-06-04T04:54:57.940Z,109.00
2017-06-04T04:55:54.203Z,111.00
2017-06-04T04:56:50.508Z,111.00
2017-06-04T04:57:46.807Z,110.00
2017-06-04T04:58:43.092Z,108.00
2017-06-04T04:59:40.220Z,105.00
2017-06-04T05:00:36.522Z,100.00
2017-06-04T05:01:32.800Z,95.00
2017-06-04T05:02:29.083Z,91.00
2017-06-04T05:03:25.398Z,88.00
2017-06-04T05:04:21.682Z,86.00
2017-06-04T05:05:17.982Z,84.00
2017-06-04T05:06:14.431Z,83.00
2017-06-04T05:07:10.707Z,83.00
2017-06-04T05:08:07.971Z,84.00
2017-06-04T05:09:05.267Z,86.00
2017-06-04T05:10:01.896Z,90.00
2017-06-04T05:10:58.258Z,95.00
2017-06-04T05:11:54.523Z,100.00
2017-06-04T05:12:50.820Z,105.00
2017-06-04T05:13:47.114Z,110.00
2017-06-04T05:14:43.378Z,115.00
2017-06-04T05:15:39.654Z,120.00
2017-06-04T05:16:35.921Z,126.00
2017-06-04T05:17:32.214Z,131.00
2017-06-04T05:18:28.516Z,135.00
2017-06-04T05:19:24.802Z,137.00
2017-06-04T05:20:21.076Z,142.00
2017-06-04T05:21:18.411Z,145.00
2017-06-04T05:22:19.359Z,146.00
2017-06-04T05:23:18.873Z,148.00
2017-06-04T05:24:16.476Z,150.00
2017-06-04T05:25:12.807Z,152.00
2017-06-04T05:26:14.467Z,156.00
2017-06-04T05:27:10.782Z,160.00
2017-06-04T05:28:11.771Z,165.00
2017-06-04T05:29:09.071Z,172.00
2017-06-04T05:30:10.102Z,182.00
2017-06-04T05:31:06.611Z,192.00
2017-06-04T05:32:03.728Z,204.00
2017-06-04T05:33:00.034Z,214.00
2017-06-04T05:33:57.499Z,223.00
2017-06-04T05:34:53.843Z,231.00
2017-06-04T05:35:51.972Z,237.00
2017-06-04T05:36:51.524Z,245.00
2017-06-04T05:37:47.834Z,251.00
2017-06-04T05:38:44.106Z,255.00
2017-06-04T05:39:40.367Z,257.00
2017-06-04T05:40:36.639Z,257.00
2017-06-04T05:41:34.759Z,254.00
2017-06-04T05:42:31.043Z,251.00
2017-06-04T05:43:27.323Z,250.00
2017-06-04T05:44:23.654Z,249.00
2017-06-04T05:45:22.783Z,249.00
2017-06-04T05:46:19.071Z,249.00
2017-06-04T05:47:15.383Z,251.00
2017-06-04T05:48:12.426Z,253.00
2017-06-04T05:49:08.688Z,255.00
2017-06-04T05:50:05.756Z,256.00
2017-06-04T05:51:02.032Z,255.00
2017-06-04T05:51:59.142Z,253.00
2017-06-04T05:52:57.411Z,250.00
2017-06-04T05:53:53.683Z,247.00
2017-06-04T05:54:49.942Z,244.00
2017-06-04T05:55:46.247Z,240.00
2017-06-04T05:56:43.539Z,236.00
2017-06-04T05:57:40.743Z,232.00
2017-06-04T05:58:38.011Z,231.00
2017-06-04T05:59:34.333Z,231.00
2017-06-04T06:00:32.530Z,234.00
2017-06-04T06:01:29.676Z,236.00
2017-06-04T06:02:26.019Z,238.00
2017-06-04T06:03:22.387Z,240.00
2017-06-04T06:04:18.768Z,243.00
2017-06-04T06:05:15.075Z,245.00
2017-06-04T06:06:11.380Z,247.00
2017-06-04T06:07:07.675Z,248.00
2017-06-04T06:08:03.976Z,248.00
2017-06-04T06:09:00.311Z,247.00
2017-06-04T06:09:56.595Z,247.00
2017-06-04T06:10:52.870Z,249.00
2017-06-04T06:11:49.895Z,251.00
2017-06-04T06:12:46.991Z,254.00
2017-06-04T06:13:44.110Z,257.00
2017-06-04T06:14:40.443Z,258.00
2017-06-04T06:15:36.728Z,259.00
2017-06-04T06:16:33.002Z,263.00
2017-06-04T06:17:29.388Z,270.00
2017-06-04T06:18:25.735Z,281.00
2017-06-04T06:19:23.104Z,289.00
2017-06-04T06:20:19.415Z,293.00
2017-06-04T06:21:16.732Z,295.00
2017-06-04T06:22:13.043Z,293.00
2017-06-04T06:23:09.644Z,287.00
2017-06-04T06:24:06.084Z,280.00
2017-06-04T06:25:03.183Z,273.00
2017-06-04T06:25:59.487Z,267.00
2017-06-04T06:26:55.755Z,264.00
2017-06-04T06:27:53.932Z,262.00
2017-06-04T06:28:50.275Z,259.00
2017-06-04T06:29:46.587Z,259.00
2017-06-04T06:30:42.906Z,263.00
2017-06-04T06:31:39.376Z,270.00
2017-06-04T06:32:35.839Z,277.00
2017-06-04T06:33:33.208Z,284.00
2017-06-04T06:34:30.571Z,292.00
2017-06-04T06:35:29.224Z,304.00
2017-06-04T06:36:25.656Z,318.00
2017-06-04T06:37:24.892Z,331.00
2017-06-04T06:38:26.051Z,345.00
2017-06-04T06:39:22.398Z,359.00
2017-06-04T06:40:19.451Z,372.00
2017-06-04T06:41:15.710Z,378.00
2017-06-04T06:42:12.902Z,369.00
2017-06-04T06:43:10.115Z,355.00
2017-06-04T06:44:07.267Z,352.00
2017-06-04T06:45:03.555Z,355.00
2017-06-04T06:46:00.590Z,356.00
2017-06-04T06:46:56.852Z,352.00
2017-06-04T06:47:53.203Z,340.00
2017-06-04T06:48:50.355Z,349.00
2017-06-04T06:49:46.695Z,393.00
2017-06-04T06:50:42.967Z,432.00
2017-06-04T06:51:40.128Z,436.00
2017-06-04T06:52:36.499Z,450.00
2017-06-04T06:53:32.899Z,502.00
2017-06-04T06:54:29.170Z,540.00
2017-06-04T06:55:25.447Z,548.00
2017-06-04T06:56:22.659Z,545.00
2017-06-04T06:57:18.943Z,516.00
2017-06-04T06:58:15.239Z,489.00
2017-06-04T06:59:11.540Z,465.00
2017-06-04T07:00:07.803Z,437.00
2017-06-04T07:01:04.171Z,426.00
2017-06-04T07:02:00.465Z,426.00
2017-06-04T07:02:57.620Z,432.00
2017-06-04T07:03:53.918Z,423.00
2017-06-04T07:04:50.179Z,400.00
2017-06-04T07:05:46.456Z,393.00
2017-06-04T07:06:43.619Z,382.00
2017-06-04T07:07:39.928Z,370.00
2017-06-04T07:08:37.215Z,364.00
2017-06-04T07:09:34.624Z,364.00
2017-06-04T07:10:31.896Z,370.00
2017-06-04T07:11:28.235Z,377.00
2017-06-04T07:12:24.523Z,375.00
2017-06-04T07:13:20.792Z,370.00
2017-06-04T07:14:17.077Z,368.00
2017-06-04T07:15:13.387Z,372.00
2017-06-04T07:16:09.743Z,382.00
2017-06-04T07:17:07.028Z,393.00
2017-06-04T07:18:11.175Z,404.00
2017-06-04T07:19:07.451Z,411.00
2017-06-04T07:20:03.742Z,415.00
2017-06-04T07:21:00.226Z,410.00
2017-06-04T07:21:56.652Z,391.00
2017-06-04T07:22:52.966Z,363.00
2017-06-04T07:23:49.234Z,338.00
2017-06-04T07:24:45.491Z,324.00
2017-06-04T07:25:41.745Z,324.00
2017-06-04T07:26:38.087Z,326.00
2017-06-04T07:27:34.384Z,326.00
2017-06-04T07:28:30.667Z,319.00
2017-06-04T07:29:26.925Z,312.00
2017-06-04T07:30:23.175Z,305.00
2017-06-04T07:31:19.443Z,301.00
2017-06-04T07:32:15.800Z,301.00
2017-06-04T07:33:14.059Z,304.00
2017-06-04T07:34:10.403Z,310.00
2017-06-04T07:35:08.168Z,320.00
2017-06-04T07:36:04.572Z,338.00
2017-06-04T07:37:00.827Z,362.00
2017-06-04T07:37:57.127Z,389.00
2017-06-04T07:38:53.401Z,419.00
2017-06-04T07:39:50.703Z,444.00
2017-06-04T07:40:46.963Z,465.00
2017-06-04T07:41:44.048Z,481.00
2017-06-04T07:42:41.124Z,495.00
2017-06-04T07:43:37.427Z,513.00
2017-06-04T07:44:33.698Z,525.00
2017-06-04T07:45:29.939Z,529.00
2017-06-04T07:46:26.183Z,532.00
2017-06-04T07:47:22.434Z,539.00
2017-06-04T07:48:18.678Z,551.00
2017-06-04T07:49:14.962Z,562.00
2017-06-04T07:50:11.210Z,574.00
2017-06-04T07:51:07.470Z,579.00
2017-06-04T07:52:03.711Z,578.00
2017-06-04T07:52:59.958Z,577.00
2017-06-04T07:53:56.210Z,578.00
2017-06-04T07:54:52.471Z,585.00
2017-06-04T07:55:48.707Z,590.00
2017-06-04T07:56:44.974Z,587.00
2017-06-04T07:57:41.214Z,578.00
2017-06-04T07:58:39.369Z,565.00
2017-06-04T07:59:35.651Z,556.00
2017-06-04T08:00:31.894Z,568.00
2017-06-04T08:01:28.143Z,578.00
2017-06-04T08:02:24.392Z,590.00
2017-06-04T08:03:20.647Z,605.00
2017-06-04T08:04:16.890Z,634.00
2017-06-04T08:05:13.155Z,664.00
2017-06-04T08:06:09.432Z,693.00
2017-06-04T08:07:06.603Z,730.00
2017-06-04T08:08:04.920Z,756.00
2017-06-04T08:09:02.096Z,782.00
2017-06-04T08:09:59.471Z,796.00
2017-06-04T08:10:55.767Z,792.00
2017-06-04T08:11:52.022Z,792.00
2017-06-04T08:12:48.285Z,794.00
2017-06-04T08:13:44.621Z,810.00
2017-06-04T08:14:41.044Z,863.00
2017-06-04T08:15:37.736Z,870.00
2017-06-04T08:16:34.766Z,869.00
2017-06-04T08:17:35.135Z,862.00
2017-06-04T08:18:32.362Z,853.00
2017-06-04T08:19:28.912Z,811.00
2017-06-04T08:20:25.222Z,765.00
2017-06-04T08:21:21.463Z,716.00
2017-06-04T08:22:17.751Z,707.00
2017-06-04T08:23:15.979Z,723.00
2017-06-04T08:24:12.231Z,760.00
2017-06-04T08:25:08.822Z,777.00
2017-06-04T08:26:05.173Z,757.00
2017-06-04T08:27:02.463Z,712.00
2017-06-04T08:27:58.821Z,657.00
2017-06-04T08:28:56.046Z,608.00
2017-06-04T08:29:53.236Z,585.00
2017-06-04T08:30:49.498Z,592.00
2017-06-04T08:31:45.755Z,612.00
2017-06-04T08:32:42.030Z,630.00
2017-06-04T08:33:38.307Z,641.00
2017-06-04T08:34:34.582Z,643.00
2017-06-04T08:35:30.895Z,650.00
2017-06-04T08:36:27.155Z,650.00
2017-06-04T08:37:23.422Z,659.00
2017-06-04T08:38:19.679Z,677.00
2017-06-04T08:39:16.931Z,701.00
2017-06-04T08:40:13.196Z,730.00
2017-06-04T08:41:09.446Z,765.00
2017-06-04T08:42:06.519Z,791.00
2017-06-04T08:43:02.790Z,809.00
2017-06-04T08:43:59.086Z,836.00
2017-06-04T08:44:55.367Z,865.00
2017-06-04T08:45:51.619Z,899.00
2017-06-04T08:46:47.862Z,959.00
2017-06-04T08:47:44.134Z,969.00
2017-06-04T08:48:40.399Z,1010.00
2017-06-04T08:49:36.682Z,1046.00
2017-06-04T08:50:32.919Z,1094.00
2017-06-04T08:51:29.198Z,1376.00
2017-06-04T08:52:25.463Z,1162.00
2017-06-04T08:53:21.748Z,1155.00
2017-06-04T08:54:18.006Z,1152.00
2017-06-04T08:55:14.279Z,1213.00
2017-06-04T08:56:12.576Z,1171.00
2017-06-04T08:57:08.882Z,1159.00
2017-06-04T08:58:05.168Z,1303.00
2017-06-04T08:59:02.403Z,1350.00
2017-06-04T08:59:58.655Z,1518.00
2017-06-04T09:00:54.919Z,1701.00
2017-06-04T09:01:51.178Z,1505.00
2017-06-04T09:02:47.454Z,1561.00
2017-06-04T09:03:43.722Z,1569.00
2017-06-04T09:04:39.975Z,1534.00
2017-06-04T09:05:36.231Z,1447.00
2017-06-04T09:06:32.532Z,1487.00
2017-06-04T09:07:28.818Z,1446.00
2017-06-04T09:08:25.075Z,1302.00
2017-06-04T09:09:21.335Z,1298.00
2017-06-04T09:10:17.587Z,1322.00
2017-06-04T09:11:13.869Z,1314.00
2017-06-04T09:12:10.115Z,1223.00
2017-06-04T09:13:06.379Z,1302.00
2017-06-04T09:14:02.634Z,1127.00
2017-06-04T09:14:58.878Z,1134.00
2017-06-04T09:15:55.118Z,1219.00
2017-06-04T09:16:51.394Z,1412.00
2017-06-04T09:17:47.638Z,1241.00
2017-06-04T09:18:43.894Z,1195.00
2017-06-04T09:19:40.161Z,1202.00
2017-06-04T09:20:36.414Z,1153.00
2017-06-04T09:21:32.687Z,1174.00
2017-06-04T09:22:28.990Z,1125.00
2017-06-04T09:23:25.263Z,1855.00
2017-06-04T09:24:21.517Z,1840.00
2017-06-04T09:25:19.767Z,1711.00
2017-06-04T09:26:16.230Z,1840.00
2017-06-04T09:27:12.535Z,1267.00
2017-06-04T09:28:08.831Z,1576.00
2017-06-04T09:29:05.099Z,862.00
2017-06-04T09:30:01.380Z,1955.00
2017-06-04T09:30:57.635Z,1028.00
2017-06-04T09:31:53.891Z,805.00
2017-06-04T09:32:50.149Z,651.00
2017-06-04T09:33:46.427Z,549.00
2017-06-04T09:34:42.687Z,489.00
2017-06-04T09:35:38.934Z,466.00
2017-06-04T09:36:35.179Z,452.00
2017-06-04T09:37:31.442Z,444.00
2017-06-04T09:38:27.727Z,443.00
2017-06-04T09:39:23.990Z,443.00
2017-06-04T09:40:20.240Z,480.00
2017-06-04T09:41:17.339Z,553.00
2017-06-04T09:42:13.601Z,651.00
2017-06-04T09:43:09.859Z,751.00
2017-06-04T09:44:06.155Z,949.00
2017-06-04T09:45:02.419Z,919.00
2017-06-04T09:45:58.678Z,957.00
2017-06-04T09:46:54.927Z,1180.00
2017-06-04T09:47:51.189Z,1462.00
2017-06-04T09:48:48.387Z,1593.00
2017-06-04T09:49:45.652Z,3058.00
2017-06-04T09:50:41.907Z,1483.00
2017-06-04T09:51:38.216Z,3402.00
2017-06-04T09:52:34.532Z,2423.00
2017-06-04T09:53:30.795Z,1494.00
2017-06-04T09:54:27.063Z,3317.00
2017-06-04T09:55:23.315Z,1600.00
2017-06-04T09:56:19.567Z,1680.00
2017-06-04T09:57:15.842Z,3451.00
2017-06-04T09:58:12.087Z,1162.00
2017-06-04T09:59:08.351Z,1154.00
2017-06-04T10:00:04.599Z,1259.00
2017-06-04T10:01:00.838Z,987.00
2017-06-04T10:01:57.095Z,1020.00
2017-06-04T10:02:53.370Z,2081.00
2017-06-04T10:03:49.614Z,2325.00
2017-06-04T10:04:45.907Z,1795.00
2017-06-04T10:05:42.158Z,1672.00
2017-06-04T10:06:38.432Z,1577.00
2017-06-04T10:07:34.751Z,1155.00
2017-06-04T10:08:31.006Z,1002.00
2017-06-04T10:09:27.267Z,923.00
2017-06-04T10:10:23.523Z,943.00
2017-06-04T10:11:19.794Z,1004.00
2017-06-04T10:12:16.062Z,1157.00
2017-06-04T10:13:13.147Z,1172.00
2017-06-04T10:14:09.443Z,1004.00
2017-06-04T10:15:05.690Z,1035.00
2017-06-04T10:16:01.959Z,1480.00
2017-06-04T10:16:58.202Z,1318.00
2017-06-04T10:17:54.446Z,3169.00
2017-06-04T10:18:51.482Z,1632.00
2017-06-04T10:19:47.762Z,1249.00
2017-06-04T10:20:45.691Z,1198.00
2017-06-04T10:21:41.947Z,1795.00
2017-06-04T10:22:38.207Z,1413.00
